Time;durP1;ratioP1;P1;durP2;ratioP2;P2;SDS_P1;SDS_P2;PMS_P1;PMS_P2;Temp;Humidity;BMP_temperature;BMP_pressure;BME280_temperature;BME280_humidity;BME280_pressure;Samples;Min_cycle;Max_cycle;Signal;HPM_P1;HPM_P2
2024/01/24 00:01:50;;;;;;;15.68;2.50;;;;;;;8.97;85.68;101116.91;4951068;28;98891;-71
2024/01/24 00:04:18;;;;;;;16.65;3.03;;;;;;;9.00;85.71;101102.78;4942275;28;98743;-71
2024/01/24 00:06:44;;;;;;;17.17;2.58;;;;;;;8.77;87.16;101098.91;4957556;28;96731;-71
2024/01/24 00:09:11;;;;;;;10.77;2.25;;;;;;;8.84;87.06;101085.59;4948851;28;97593;-71
2024/01/24 00:11:37;;;;;;;9.95;2.17;;;;;;;8.68;88.67;101074.53;4954159;28;98943;-70
2024/01/24 00:14:03;;;;;;;16.17;2.20;;;;;;;8.52;89.85;101063.47;4952407;28;100412;-71
2024/01/24 00:16:30;;;;;;;16.30;1.95;;;;;;;8.80;88.77;101063.69;4952950;28;98649;-71
2024/01/24 00:18:56;;;;;;;17.83;2.40;;;;;;;8.91;88.89;101035.34;4950539;28;98764;-70
2024/01/24 00:21:24;;;;;;;16.73;2.15;;;;;;;8.98;88.75;101029.03;4951226;28;99346;-70
2024/01/24 00:23:51;;;;;;;11.82;2.55;;;;;;;8.84;89.88;101025.00;4945815;28;99267;-70
2024/01/24 00:26:17;;;;;;;11.77;2.53;;;;;;;8.65;90.95;101007.00;4948690;28;96721;-70
2024/01/24 00:28:43;;;;;;;11.30;2.10;;;;;;;8.59;91.54;101003.63;4949013;28;96982;-72
2024/01/24 00:31:10;;;;;;;14.35;2.97;;;;;;;8.69;92.78;101000.72;4951281;28;99863;-70
2024/01/24 00:33:36;;;;;;;11.20;2.58;;;;;;;8.54;93.16;101014.25;4947897;28;99031;-70
2024/01/24 00:36:02;;;;;;;16.35;3.22;;;;;;;8.70;93.81;101014.78;4950430;28;97583;-70
2024/01/24 00:38:30;;;;;;;9.05;1.95;;;;;;;8.91;92.51;100987.03;4947409;28;96921;-70
2024/01/24 00:40:57;;;;;;;12.10;2.00;;;;;;;8.81;93.06;100965.31;4949869;28;98499;-70
2024/01/24 00:43:25;;;;;;;15.07;2.38;;;;;;;8.88;93.54;100956.34;4945799;28;101207;-71
2024/01/24 00:45:52;;;;;;;12.65;2.42;;;;;;;8.73;93.21;100933.00;4949680;28;97366;-71
2024/01/24 00:48:18;;;;;;;14.65;2.58;;;;;;;8.92;93.81;100939.56;4946923;28;97650;-71
2024/01/24 00:50:47;;;;;;;14.40;2.30;;;;;;;9.16;92.43;100914.34;4951303;28;99242;-71
2024/01/24 00:53:16;;;;;;;10.45;1.88;;;;;;;9.06;92.63;100899.66;4951213;28;98507;-72
2024/01/24 00:55:44;;;;;;;15.88;3.08;;;;;;;9.25;92.10;100903.53;4953939;28;97391;-71
2024/01/24 00:58:11;;;;;;;10.20;1.83;;;;;;;8.92;93.08;100894.78;4944623;28;96879;-70
2024/01/24 01:00:37;;;;;;;10.38;1.77;;;;;;;8.93;94.03;100878.03;4951306;28;98953;-71
2024/01/24 01:03:04;;;;;;;9.75;1.80;;;;;;;9.11;93.92;100867.00;4945267;28;99278;-70
2024/01/24 01:05:31;;;;;;;17.63;2.03;;;;;;;9.53;92.43;100851.72;4952988;28;97038;-70
2024/01/24 01:07:57;;;;;;;7.88;1.52;;;;;;;9.28;92.50;100823.47;4955860;28;97222;-71
2024/01/24 01:10:23;;;;;;;11.60;1.88;;;;;;;9.32;93.68;100822.50;4949453;28;99193;-71
2024/01/24 01:12:51;;;;;;;8.65;1.70;;;;;;;9.13;94.14;100823.00;4952065;28;99076;-71
2024/01/24 01:15:18;;;;;;;6.43;1.27;;;;;;;9.08;95.53;100822.28;4948831;28;97825;-71
2024/01/24 01:17:44;;;;;;;8.75;1.63;;;;;;;9.35;94.67;100814.47;4950400;28;96815;-71
2024/01/24 01:20:11;;;;;;;12.02;2.38;;;;;;;9.28;94.15;100799.75;4947870;28;97969;-71
2024/01/24 01:22:38;;;;;;;10.90;2.15;;;;;;;9.50;93.50;100793.78;4948826;28;101239;-70
2024/01/24 01:25:04;;;;;;;6.63;1.38;;;;;;;9.54;93.92;100789.28;4949018;28;97176;-72
2024/01/24 01:27:31;;;;;;;13.15;1.40;;;;;;;9.06;95.83;100781.91;4950324;28;96790;-72
2024/01/24 01:29:58;;;;;;;12.18;1.70;;;;;;;9.20;96.42;100773.59;4947625;28;101443;-72
2024/01/24 01:32:25;;;;;;;8.20;1.60;;;;;;;9.29;96.68;100777.75;4947968;28;98902;-72
2024/01/24 01:34:51;;;;;;;4.82;1.27;;;;;;;9.33;97.18;100758.28;4949693;28;97219;-72
2024/01/24 01:37:17;;;;;;;4.88;1.00;;;;;;;9.31;97.15;100752.19;4950132;28;97418;-72
2024/01/24 01:39:44;;;;;;;4.53;1.02;;;;;;;9.45;96.69;100742.94;4951426;28;99168;-71
2024/01/24 01:42:10;;;;;;;7.72;1.02;;;;;;;9.30;97.93;100714.41;4946117;28;101873;-72
2024/01/24 01:44:45;;;;;;;4.97;1.00;;;;;;;9.39;98.36;100710.59;4953253;28;96834;-69
2024/01/24 01:47:13;;;;;;;3.58;1.00;;;;;;;9.56;97.04;100714.47;4948106;28;98364;-69
2024/01/24 01:49:42;;;;;;;3.92;0.80;;;;;;;9.57;97.00;100713.56;4945448;28;99390;-69
2024/01/24 01:52:10;;;;;;;2.28;0.80;;;;;;;9.25;98.65;100695.25;4951253;28;102315;-69
2024/01/24 01:54:37;;;;;;;2.50;1.15;;;;;;;9.48;97.88;100689.22;4951471;28;98049;-70
2024/01/24 01:57:04;;;;;;;4.85;1.38;;;;;;;9.14;100.00;100694.69;4950785;28;97063;-70
2024/01/24 01:59:31;;;;;;;3.42;0.90;;;;;;;9.45;99.01;100695.47;4954783;28;99273;-69
2024/01/24 02:02:01;;;;;;;5.97;0.90;;;;;;;9.52;100.00;100675.03;4949058;28;98966;-69
2024/01/24 02:04:29;;;;;;;2.50;1.10;;;;;;;9.51;99.36;100668.06;4947688;28;97235;-69
2024/01/24 02:06:56;;;;;;;3.47;1.00;;;;;;;9.39;99.53;100658.72;4950251;28;97201;-69
2024/01/24 02:09:23;;;;;;;7.22;1.20;;;;;;;9.45;99.62;100653.25;4954421;28;98915;-70
2024/01/24 02:11:49;;;;;;;3.38;1.00;;;;;;;9.50;99.95;100640.81;4949668;28;100180;-70
2024/01/24 02:14:15;;;;;;;2.58;1.35;;;;;;;9.66;98.88;100635.00;4951651;28;97258;-70
2024/01/24 02:16:42;;;;;;;3.42;1.23;;;;;;;9.38;99.63;100620.13;4954188;28;97111;-70
2024/01/24 02:19:08;;;;;;;3.92;1.02;;;;;;;9.31;100.00;100644.09;4948056;28;98907;-69
2024/01/24 02:21:36;;;;;;;2.97;0.90;;;;;;;9.45;100.00;100636.59;4945003;28;99011;-70
2024/01/24 02:24:03;;;;;;;1.58;0.80;;;;;;;9.63;99.69;100640.41;4947716;28;98542;-70
2024/01/24 02:26:31;;;;;;;3.67;1.23;;;;;;;9.58;100.00;100624.72;4944434;28;97316;-69
2024/01/24 02:28:57;;;;;;;3.08;0.80;;;;;;;9.22;100.00;100634.69;4947146;28;99209;-70
2024/01/24 02:31:23;;;;;;;1.33;0.80;;;;;;;9.31;100.00;100615.94;4947567;28;98845;-70
2024/01/24 02:33:50;;;;;;;1.67;0.60;;;;;;;9.39;100.00;100619.19;4944877;28;96888;-71
2024/01/24 02:36:16;;;;;;;1.67;0.90;;;;;;;9.32;100.00;100593.09;4948089;28;97708;-71
2024/01/24 02:38:42;;;;;;;2.45;1.00;;;;;;;9.27;100.00;100598.47;4949753;28;98808;-71
2024/01/24 02:41:09;;;;;;;3.05;1.30;;;;;;;9.28;100.00;100597.56;4947996;28;98920;-71
2024/01/24 02:43:37;;;;;;;3.28;1.00;;;;;;;9.31;100.00;100588.72;4947526;28;96948;-71
2024/01/24 02:46:03;;;;;;;3.17;1.00;;;;;;;9.44;100.00;100592.66;4946932;28;96950;-71
2024/01/24 02:48:29;;;;;;;5.28;1.35;;;;;;;9.45;100.00;100570.66;4947734;28;99541;-71
2024/01/24 02:50:56;;;;;;;2.78;1.10;;;;;;;9.44;100.00;100553.13;4948601;28;98874;-71
2024/01/24 02:53:22;;;;;;;2.08;1.05;;;;;;;9.52;100.00;100551.91;4947657;28;97163;-71
2024/01/24 02:55:48;;;;;;;2.92;1.10;;;;;;;9.36;100.00;100549.88;4949718;28;96878;-71
2024/01/24 02:58:15;;;;;;;2.80;1.10;;;;;;;9.42;100.00;100531.19;4949135;28;99232;-71
2024/01/24 03:00:42;;;;;;;2.30;0.98;;;;;;;9.25;100.00;100533.56;4951813;28;99524;-72
2024/01/24 03:03:09;;;;;;;7.20;1.35;;;;;;;9.33;100.00;100520.94;4950493;28;97721;-71
2024/01/24 03:05:35;;;;;;;4.38;0.93;;;;;;;9.70;100.00;100521.41;4949153;28;96855;-71
2024/01/24 03:08:03;;;;;;;4.75;1.10;;;;;;;9.69;100.00;100517.06;4949768;28;99405;-71
2024/01/24 03:10:30;;;;;;;2.33;0.88;;;;;;;9.61;100.00;100527.00;4946518;28;98414;-70
2024/01/24 03:12:56;;;;;;;2.97;1.08;;;;;;;9.63;100.00;100527.81;4948222;28;97099;-70
2024/01/24 03:15:22;;;;;;;3.45;0.90;;;;;;;9.80;100.00;100506.97;4949701;28;97429;-70
2024/01/24 03:17:50;;;;;;;2.22;0.82;;;;;;;9.93;100.00;100497.69;4948481;28;97699;-70
2024/01/24 03:20:17;;;;;;;1.88;0.80;;;;;;;10.22;100.00;100511.63;4947151;28;99613;-70
2024/01/24 03:22:43;;;;;;;3.63;0.90;;;;;;;10.02;100.00;100511.47;4944445;28;97896;-70
2024/01/24 03:25:12;;;;;;;5.18;1.90;;;;;;;10.05;100.00;100511.34;4945525;28;96967;-70
2024/01/24 03:27:39;;;;;;;2.47;1.02;;;;;;;10.10;100.00;100517.34;4945150;28;98972;-71
2024/01/24 03:30:06;;;;;;;2.92;0.88;;;;;;;10.16;100.00;100507.41;4944354;28;100192;-71
2024/01/24 03:32:32;;;;;;;2.38;1.05;;;;;;;10.07;100.00;100489.25;4947915;28;96939;-71
2024/01/24 03:35:01;;;;;;;2.17;0.80;;;;;;;10.42;100.00;100487.97;4948573;28;97398;-71
2024/01/24 03:37:27;;;;;;;4.53;1.35;;;;;;;10.28;100.00;100492.91;4947523;28;99597;-71
2024/01/24 03:39:53;;;;;;;4.95;1.40;;;;;;;10.27;100.00;100488.53;4949689;28;98782;-71
2024/01/24 03:42:21;;;;;;;4.70;1.52;;;;;;;10.06;100.00;100494.59;4948668;28;97600;-71
2024/01/24 03:44:47;;;;;;;3.72;0.90;;;;;;;10.13;100.00;100494.31;4949727;28;97181;-71
2024/01/24 03:47:14;;;;;;;7.53;1.23;;;;;;;10.16;100.00;100488.06;4947991;28;96903;-70
2024/01/24 03:49:40;;;;;;;4.10;1.08;;;;;;;10.51;100.00;100481.44;4951203;28;102118;-70
2024/01/24 03:52:08;;;;;;;3.65;1.00;;;;;;;10.12;100.00;100479.38;4949947;28;97060;-70
2024/01/24 03:54:34;;;;;;;6.72;0.90;;;;;;;10.43;100.00;100472.97;4951515;28;97600;-70
2024/01/24 03:57:00;;;;;;;4.30;1.25;;;;;;;10.31;100.00;100482.22;4949125;28;99056;-70
2024/01/24 03:59:27;;;;;;;4.03;0.95;;;;;;;10.17;100.00;100458.13;4950961;28;99442;-70
2024/01/24 04:01:53;;;;;;;3.17;1.40;;;;;;;10.49;100.00;100464.81;4949462;28;97193;-70
2024/01/24 04:04:19;;;;;;;5.45;1.25;;;;;;;10.55;100.00;100456.63;4950968;28;97107;-71
2024/01/24 04:06:46;;;;;;;3.33;0.70;;;;;;;10.50;100.00;100446.22;4951150;28;99801;-70
2024/01/24 04:09:15;;;;;;;4.22;0.95;;;;;;;10.37;100.00;100445.84;4950972;28;98790;-70
2024/01/24 04:11:41;;;;;;;4.00;1.02;;;;;;;10.30;100.00;100430.34;4947477;28;98451;-70
2024/01/24 04:14:09;;;;;;;3.95;0.93;;;;;;;10.45;100.00;100436.78;4952467;28;96824;-72
2024/01/24 04:16:39;;;;;;;2.78;0.93;;;;;;;10.77;100.00;100418.69;4949701;28;98997;-70
2024/01/24 04:19:05;;;;;;;6.97;1.08;;;;;;;10.63;100.00;100409.63;4948297;28;98939;-70
2024/01/24 04:21:32;;;;;;;7.95;1.75;;;;;;;10.78;100.00;100403.69;4947728;28;97337;-70
2024/01/24 04:23:58;;;;;;;5.07;0.90;;;;;;;10.58;100.00;100408.94;4945226;28;97384;-70
2024/01/24 04:26:27;;;;;;;2.10;0.95;;;;;;;10.58;100.00;100406.28;4950723;28;99349;-71
2024/01/24 04:28:53;;;;;;;2.88;1.00;;;;;;;10.60;100.00;100370.97;4949001;28;98805;-71
2024/01/24 04:31:19;;;;;;;5.00;0.95;;;;;;;10.81;100.00;100357.78;4948205;28;96897;-71
2024/01/24 04:33:45;;;;;;;3.75;1.15;;;;;;;11.02;100.00;100357.75;4954633;28;97610;-72
2024/01/24 04:36:12;;;;;;;3.08;0.77;;;;;;;10.91;100.00;100372.31;4949648;28;99327;-72
2024/01/24 04:38:38;;;;;;;3.67;1.20;;;;;;;10.94;100.00;100365.13;4947948;28;98945;-72
2024/01/24 04:41:05;;;;;;;1.45;0.82;;;;;;;11.14;100.00;100366.91;4952152;28;97070;-72
2024/01/24 04:43:32;;;;;;;5.70;1.20;;;;;;;11.04;100.00;100362.94;4949763;28;99885;-72
2024/01/24 04:45:59;;;;;;;7.32;0.77;;;;;;;10.78;100.00;100371.97;4949728;28;98927;-72
2024/01/24 04:48:25;;;;;;;4.53;0.80;;;;;;;10.88;100.00;100372.47;4951554;28;100744;-72
2024/01/24 04:50:52;;;;;;;3.15;1.02;;;;;;;10.84;100.00;100361.16;4950994;28;98902;-72
2024/01/24 04:53:18;;;;;;;3.45;1.00;;;;;;;11.18;100.00;100352.63;4949480;28;97260;-71
2024/01/24 04:55:44;;;;;;;6.85;1.65;;;;;;;11.36;100.00;100349.16;4950187;28;99208;-71
2024/01/24 04:58:11;;;;;;;3.42;1.05;;;;;;;11.42;100.00;100342.75;4951336;28;98940;-71
2024/01/24 05:00:39;;;;;;;3.65;1.00;;;;;;;11.09;100.00;100343.28;4952539;28;97525;-71
2024/01/24 05:03:05;;;;;;;6.72;1.38;;;;;;;11.18;100.00;100331.47;4953113;28;96952;-71
2024/01/24 05:05:31;;;;;;;3.03;1.02;;;;;;;11.02;100.00;100359.53;4949500;28;99069;-75
2024/01/24 05:07:58;;;;;;;5.40;1.00;;;;;;;11.08;100.00;100349.53;4950644;28;99171;-75
2024/01/24 05:10:24;;;;;;;4.70;0.95;;;;;;;11.33;100.00;100332.56;4950619;28;97164;-75
2024/01/24 05:12:50;;;;;;;5.05;0.90;;;;;;;11.55;100.00;100328.84;4951434;28;97512;-76
2024/01/24 05:15:17;;;;;;;7.75;1.52;;;;;;;11.78;100.00;100329.63;4947942;28;98096;-75
2024/01/24 05:17:44;;;;;;;7.63;1.27;;;;;;;11.36;100.00;100333.28;4949841;28;99933;-74
2024/01/24 05:20:11;;;;;;;3.55;1.17;;;;;;;11.35;100.00;100325.44;4946430;28;98409;-74
2024/01/24 05:22:38;;;;;;;3.63;0.80;;;;;;;11.53;100.00;100317.50;4949556;28;97061;-74
2024/01/24 05:25:05;;;;;;;3.78;1.08;;;;;;;11.55;100.00;100328.84;4941977;28;99106;-74
2024/01/24 05:27:31;;;;;;;4.72;1.33;;;;;;;11.50;100.00;100341.44;4947715;28;98870;-74
2024/01/24 05:29:58;;;;;;;4.20;1.15;;;;;;;11.16;100.00;100315.66;4948150;28;96916;-74
2024/01/24 05:32:24;;;;;;;3.55;0.93;;;;;;;11.24;100.00;100310.03;4947462;28;97383;-74
2024/01/24 05:34:52;;;;;;;4.63;1.25;;;;;;;11.27;100.00;100296.69;4947139;28;99998;-74
2024/01/24 05:37:18;;;;;;;6.78;0.98;;;;;;;11.23;100.00;100304.81;4948565;28;98104;-76
2024/01/24 05:39:44;;;;;;;4.75;1.08;;;;;;;11.42;100.00;100301.25;4948472;28;96751;-74
2024/01/24 05:42:11;;;;;;;1.77;0.70;;;;;;;11.15;100.00;100305.16;4947700;28;97279;-74
2024/01/24 05:44:38;;;;;;;5.57;0.80;;;;;;;11.13;100.00;100307.88;4949446;28;99122;-73
2024/01/24 05:47:05;;;;;;;5.47;0.88;;;;;;;11.17;100.00;100284.78;4947137;28;99269;-74
2024/01/24 05:49:35;;;;;;;2.58;0.75;;;;;;;11.13;100.00;100285.84;4947700;28;97520;-74
2024/01/24 05:52:03;;;;;;;1.88;0.57;;;;;;;11.45;100.00;100300.25;4952394;28;96852;-74
2024/01/24 05:54:29;;;;;;;2.15;0.70;;;;;;;11.32;100.00;100285.88;4950196;28;100071;-74
2024/01/24 05:56:57;;;;;;;4.32;0.80;;;;;;;11.51;100.00;100284.09;4951036;28;97740;-74
2024/01/24 05:59:23;;;;;;;1.90;0.70;;;;;;;11.56;100.00;100282.94;4953940;28;96852;-74
2024/01/24 06:01:50;;;;;;;3.20;1.00;;;;;;;11.58;100.00;100270.50;4951304;28;97466;-74
2024/01/24 06:04:16;;;;;;;1.77;0.50;;;;;;;11.52;100.00;100267.31;4952037;28;99016;-74
2024/01/24 06:06:43;;;;;;;4.88;0.93;;;;;;;11.26;100.00;100279.09;4946527;28;98997;-73
2024/01/24 06:09:10;;;;;;;5.53;1.13;;;;;;;11.10;100.00;100273.63;4949152;28;98039;-73
2024/01/24 06:11:38;;;;;;;3.22;0.60;;;;;;;11.32;100.00;100262.06;4953594;28;97757;-74
2024/01/24 06:14:04;;;;;;;5.03;0.90;;;;;;;11.59;100.00;100261.66;4949816;28;98263;-74
2024/01/24 06:16:31;;;;;;;5.15;0.98;;;;;;;11.67;100.00;100241.91;4949842;28;98240;-75
2024/01/24 06:18:57;;;;;;;2.55;0.90;;;;;;;11.49;100.00;100254.19;4953390;28;96969;-75
2024/01/24 06:21:24;;;;;;;4.03;0.90;;;;;;;11.58;100.00;100265.22;4951136;28;96825;-72
2024/01/24 06:23:50;;;;;;;4.28;0.65;;;;;;;11.53;100.00;100261.94;4949850;28;98495;-71
2024/01/24 06:26:17;;;;;;;1.73;0.50;;;;;;;11.32;100.00;100286.75;4947797;28;99035;-72
2024/01/24 06:28:44;;;;;;;2.35;0.63;;;;;;;11.35;100.00;100268.09;4946092;28;97617;-73
2024/01/24 06:31:10;;;;;;;4.10;0.77;;;;;;;11.55;100.00;100254.78;4952109;28;98262;-72
2024/01/24 06:33:37;;;;;;;2.75;0.57;;;;;;;11.69;100.00;100246.19;4948338;28;98916;-76
2024/01/24 06:36:04;;;;;;;2.47;0.77;;;;;;;11.63;100.00;100253.56;4948313;28;98331;-75
2024/01/24 06:38:30;;;;;;;1.05;0.50;;;;;;;11.75;100.00;100221.25;4951266;28;97109;-75
2024/01/24 06:40:57;;;;;;;1.35;0.65;;;;;;;11.44;100.00;100227.09;4948250;28;98623;-74
2024/01/24 06:43:24;;;;;;;1.63;0.70;;;;;;;11.65;100.00;100243.75;4949920;28;98949;-73
2024/01/24 06:45:51;;;;;;;1.25;0.47;;;;;;;11.78;100.00;100255.50;4948163;28;102719;-75
2024/01/24 06:48:18;;;;;;;3.80;0.60;;;;;;;11.66;100.00;100261.34;4949380;28;98653;-73
2024/01/24 06:50:45;;;;;;;1.80;0.70;;;;;;;11.93;100.00;100265.38;4947873;28;96898;-74
2024/01/24 06:53:14;;;;;;;1.42;0.68;;;;;;;11.68;100.00;100278.91;4950304;28;98993;-75
2024/01/24 06:55:41;;;;;;;2.95;0.50;;;;;;;11.70;100.00;100287.59;4947507;28;101233;-75
2024/01/24 06:58:08;;;;;;;2.80;0.40;;;;;;;11.74;100.00;100302.47;4950135;28;97436;-75
2024/01/24 07:00:36;;;;;;;3.95;0.90;;;;;;;12.40;100.00;100405.25;4949688;28;97513;-75
2024/01/24 07:03:02;;;;;;;8.35;1.30;;;;;;;13.00;100.00;100399.53;4945223;28;98374;-75
2024/01/24 07:05:29;;;;;;;7.93;1.40;;;;;;;12.52;100.00;100386.09;4947011;28;99134;-77
2024/01/24 07:07:56;;;;;;;5.93;1.05;;;;;;;12.08;100.00;100364.41;4945641;28;97168;-75
2024/01/24 07:10:22;;;;;;;6.47;0.70;;;;;;;11.28;100.00;100383.03;4943694;28;97068;-75
2024/01/24 07:12:49;;;;;;;10.13;1.40;;;;;;;11.66;100.00;100361.94;4945602;28;99223;-77
2024/01/24 07:15:16;;;;;;;10.55;1.05;;;;;;;11.74;100.00;100365.13;4949579;28;98853;-76
2024/01/24 07:17:44;;;;;;;5.28;0.95;;;;;;;11.45;100.00;100367.25;4949924;28;96824;-76
2024/01/24 07:20:12;;;;;;;8.98;1.05;;;;;;;11.30;100.00;100377.66;4948153;28;97231;-75
2024/01/24 07:22:39;;;;;;;8.27;1.17;;;;;;;11.49;100.00;100373.25;4950168;28;99143;-75
2024/01/24 07:25:07;;;;;;;14.70;1.65;;;;;;;11.57;100.00;100372.00;4940154;28;99056;-75
2024/01/24 07:27:34;;;;;;;10.63;1.23;;;;;;;11.60;100.00;100376.31;4948311;28;96854;-75
2024/01/24 07:30:00;;;;;;;8.88;1.55;;;;;;;11.64;100.00;100375.22;4947190;28;96923;-75
2024/01/24 07:32:27;;;;;;;8.98;1.27;;;;;;;11.51;100.00;100395.22;4950409;28;99121;-75
2024/01/24 07:34:55;;;;;;;8.70;1.25;;;;;;;11.82;100.00;100370.91;4944185;28;97931;-74
2024/01/24 07:37:21;;;;;;;7.85;1.48;;;;;;;11.67;100.00;100367.16;4939081;28;97571;-76
2024/01/24 07:39:48;;;;;;;11.88;1.80;;;;;;;11.91;100.00;100367.81;4937626;28;99613;-73
2024/01/24 07:42:14;;;;;;;10.98;1.77;;;;;;;12.04;100.00;100368.09;4936513;28;100596;-75
2024/01/24 07:44:41;;;;;;;9.65;1.45;;;;;;;12.02;100.00;100365.53;4936373;28;99899;-75
2024/01/24 07:47:08;;;;;;;12.73;1.77;;;;;;;12.05;100.00;100365.41;4951358;28;96853;-74
2024/01/24 07:49:34;;;;;;;16.13;2.92;;;;;;;12.22;99.74;100378.69;4943716;28;97749;-75
2024/01/24 07:52:02;;;;;;;14.45;2.10;;;;;;;12.26;99.63;100363.50;4947843;28;98173;-75
2024/01/24 07:54:29;;;;;;;13.20;2.25;;;;;;;12.36;98.96;100364.78;4949791;28;98830;-74
2024/01/24 07:56:55;;;;;;;12.68;2.17;;;;;;;12.03;99.66;100361.09;4952807;28;97330;-77
2024/01/24 07:59:21;;;;;;;15.38;1.95;;;;;;;12.42;98.82;100356.53;4951013;28;97194;-77
2024/01/24 08:01:48;;;;;;;12.55;1.95;;;;;;;12.36;97.63;100370.06;4949022;28;99383;-74
2024/01/24 08:04:14;;;;;;;16.75;2.40;;;;;;;12.58;97.23;100364.59;4950800;28;99441;-75
2024/01/24 08:06:41;;;;;;;16.15;2.03;;;;;;;12.33;96.97;100376.41;4952000;28;97310;-74
2024/01/24 08:09:09;;;;;;;18.52;2.00;;;;;;;12.33;98.11;100372.88;4946268;28;97135;-72
2024/01/24 08:11:35;;;;;;;14.55;2.60;;;;;;;12.53;96.79;100371.91;4950726;28;101594;-73
2024/01/24 08:14:01;;;;;;;14.98;1.92;;;;;;;12.35;97.94;100374.50;4934252;28;98764;-76
2024/01/24 08:16:28;;;;;;;13.57;2.17;;;;;;;12.36;97.46;100380.66;4943130;28;97384;-75
2024/01/24 08:18:55;;;;;;;11.98;1.90;;;;;;;12.41;97.73;100351.28;4944534;28;97330;-75
2024/01/24 08:21:21;;;;;;;17.23;2.78;;;;;;;12.63;97.33;100378.47;4950495;28;101691;-77
2024/01/24 08:23:47;;;;;;;23.00;2.42;;;;;;;12.57;97.94;100370.81;4949454;28;99172;-75
2024/01/24 08:26:15;;;;;;;11.57;2.20;;;;;;;12.56;98.80;100361.13;4941879;28;98570;-75
2024/01/24 08:28:42;;;;;;;16.23;2.22;;;;;;;12.58;98.39;100359.28;4945308;28;98066;-75
2024/01/24 08:31:09;;;;;;;12.07;1.80;;;;;;;12.65;99.25;100361.56;4951249;28;97975;-75
2024/01/24 08:33:35;;;;;;;11.15;1.58;;;;;;;12.64;98.20;100358.97;4950849;28;101211;-75
2024/01/24 08:36:01;;;;;;;14.75;2.58;;;;;;;12.49;98.99;100351.78;4945800;28;97300;-74
2024/01/24 08:38:28;;;;;;;10.88;1.48;;;;;;;12.15;100.00;100361.38;4949378;28;96950;-77
2024/01/24 08:40:54;;;;;;;10.70;1.85;;;;;;;12.16;100.00;100367.53;4944981;28;99749;-75
2024/01/24 08:43:22;;;;;;;10.98;1.90;;;;;;;12.05;100.00;100381.28;4947117;28;101172;-75
2024/01/24 08:45:50;;;;;;;10.65;1.55;;;;;;;11.97;100.00;100380.78;4948808;28;96832;-75
2024/01/24 08:48:17;;;;;;;10.18;1.83;;;;;;;12.01;100.00;100416.81;4936164;28;97575;-74
2024/01/24 08:50:43;;;;;;;14.73;2.05;;;;;;;12.13;100.00;100458.59;4943210;28;98947;-75
2024/01/24 08:53:10;;;;;;;13.63;1.23;;;;;;;11.75;94.93;100473.56;4943419;28;98966;-75
2024/01/24 08:55:36;;;;;;;8.80;1.65;;;;;;;12.19;93.80;100466.25;4947841;28;97556;-75
2024/01/24 08:58:02;;;;;;;12.00;1.98;;;;;;;12.71;90.35;100474.38;4948213;28;99030;-76
2024/01/24 09:00:30;;;;;;;14.48;2.17;;;;;;;12.76;90.21;100477.66;4947330;28;99103;-76
2024/01/24 09:02:58;;;;;;;12.85;1.73;;;;;;;12.50;85.35;100475.41;4950560;28;99107;-76
2024/01/24 09:05:24;;;;;;;25.40;2.33;;;;;;;12.21;86.94;100482.91;4945431;28;97256;-77
2024/01/24 09:07:51;;;;;;;9.15;2.10;;;;;;;11.89;87.00;100480.88;4946011;28;97313;-75
2024/01/24 09:10:17;;;;;;;13.45;2.30;;;;;;;12.07;85.62;100456.25;4948603;28;99184;-75
2024/01/24 09:12:43;;;;;;;12.82;2.85;;;;;;;11.98;87.08;100480.47;4945780;28;97842;-75
2024/01/24 09:15:10;;;;;;;11.13;2.15;;;;;;;11.82;85.67;100475.00;4946766;28;96869;-76
2024/01/24 09:17:38;;;;;;;29.73;2.88;;;;;;;11.41;86.43;100489.19;4947290;28;97964;-76
2024/01/24 09:20:06;;;;;;;25.88;2.15;;;;;;;11.49;86.63;100498.47;4945455;28;97567;-76
2024/01/24 09:22:32;;;;;;;20.60;2.03;;;;;;;11.71;85.33;100465.78;4941292;28;98902;-75
2024/01/24 09:24:58;;;;;;;15.18;2.03;;;;;;;12.09;79.38;100454.34;4949422;28;97915;-76
2024/01/24 09:27:25;;;;;;;13.77;2.20;;;;;;;12.37;77.98;100461.88;4942979;28;98994;-74
2024/01/24 09:29:51;;;;;;;26.45;2.17;;;;;;;12.47;76.72;100462.31;4948997;28;98949;-75
2024/01/24 09:32:18;;;;;;;68.30;4.03;;;;;;;12.71;75.15;100463.78;4948585;28;100018;-75
2024/01/24 09:34:45;;;;;;;16.08;1.98;;;;;;;12.36;76.72;100466.31;4948244;28;97300;-75
2024/01/24 09:37:12;;;;;;;14.13;2.45;;;;;;;12.37;77.39;100488.38;4946534;28;100089;-75
2024/01/24 09:39:38;;;;;;;23.98;2.65;;;;;;;12.50;78.17;100484.22;4945209;28;99301;-76
2024/01/24 09:42:10;;;;;;;22.50;2.22;;;;;;;12.34;79.48;100473.47;4945789;28;98871;-76
2024/01/24 09:44:36;;;;;;;40.95;4.10;;;;;;;12.19;81.22;100457.44;4945407;28;98805;-75
2024/01/24 09:47:04;;;;;;;23.13;2.95;;;;;;;12.54;80.74;100477.81;4947859;28;96931;-75
2024/01/24 09:49:32;;;;;;;45.42;3.28;;;;;;;13.06;78.21;100473.47;4947497;28;99056;-75
2024/01/24 09:52:02;;;;;;;77.50;4.57;;;;;;;12.88;79.25;100489.44;4945984;28;99305;-75
2024/01/24 09:54:30;;;;;;;34.50;3.53;;;;;;;12.59;80.97;100475.84;4948349;28;96851;-76
2024/01/24 09:56:57;;;;;;;20.63;2.28;;;;;;;12.53;82.05;100497.34;4950264;28;97376;-75
2024/01/24 09:59:23;;;;;;;36.15;2.70;;;;;;;12.52;82.78;100481.50;4947531;28;99169;-75
2024/01/24 10:01:50;;;;;;;52.75;5.00;;;;;;;12.67;83.10;100486.91;4940697;28;98789;-75
2024/01/24 10:04:18;;;;;;;78.75;6.35;;;;;;;13.10;82.26;100503.38;4948527;28;97647;-76
2024/01/24 10:06:47;;;;;;;23.27;2.45;;;;;;;12.52;85.00;100494.75;4949129;28;96938;-75
2024/01/24 10:09:15;;;;;;;40.63;3.83;;;;;;;12.92;83.93;100491.91;4944456;28;99325;-75
2024/01/24 10:11:41;;;;;;;74.82;6.43;;;;;;;12.92;83.05;100496.34;4948859;28;99013;-75
2024/01/24 10:14:08;;;;;;;14.82;2.30;;;;;;;12.56;85.45;100509.56;4952374;28;96776;-76
2024/01/24 10:16:35;;;;;;;18.58;2.53;;;;;;;12.44;86.82;100500.41;4945282;28;97229;-75
2024/01/24 10:19:02;;;;;;;61.78;4.47;;;;;;;12.66;85.57;100492.31;4953774;28;99248;-75
2024/01/24 10:21:28;;;;;;;99.72;7.32;;;;;;;12.70;84.90;100499.16;4946091;28;98792;-75
2024/01/24 10:23:55;;;;;;;55.75;4.05;;;;;;;12.70;84.94;100500.03;4949257;28;97248;-76
2024/01/24 10:26:23;;;;;;;45.30;3.50;;;;;;;12.72;85.02;100505.25;4946496;28;97621;-77
2024/01/24 10:28:50;;;;;;;22.83;3.22;;;;;;;12.54;85.90;100501.69;4948193;28;98903;-74
2024/01/24 10:31:19;;;;;;;55.45;3.53;;;;;;;12.69;84.48;100495.66;4942577;28;98902;-76
2024/01/24 10:33:47;;;;;;;38.10;3.85;;;;;;;12.98;83.31;100499.56;4947387;28;99119;-75
2024/01/24 10:36:14;;;;;;;28.42;3.35;;;;;;;13.18;81.00;100487.13;4942592;28;97744;-75
2024/01/24 10:38:46;;;;;;;45.38;3.83;;;;;;;13.21;80.17;100474.53;4942280;28;98916;-76
2024/01/24 10:41:15;;;;;;;39.63;4.55;;;;;;;13.02;78.69;100477.25;4944149;28;98820;-75
2024/01/24 10:43:48;;;;;;;39.97;3.92;;;;;;;12.98;79.33;100488.09;4946669;28;97769;-76
2024/01/24 10:46:16;;;;;;;28.00;3.75;;;;;;;13.01;78.09;100502.03;4944249;28;98818;-76
2024/01/24 10:48:43;;;;;;;59.47;5.28;;;;;;;13.00;77.29;100505.63;4946686;28;99380;-77
2024/01/24 10:51:10;;;;;;;33.22;3.60;;;;;;;13.12;76.99;100489.16;4944814;28;99393;-76
2024/01/24 10:53:37;;;;;;;93.20;7.07;;;;;;;13.18;76.61;100497.75;4939294;28;97809;-76
2024/01/24 10:56:06;;;;;;;57.40;4.75;;;;;;;13.17;75.28;100502.19;4944901;28;99368;-75
2024/01/24 10:58:32;;;;;;;79.50;5.93;;;;;;;13.04;76.15;100501.03;4945106;28;99060;-76
2024/01/24 11:01:01;;;;;;;123.85;8.32;;;;;;;13.27;75.29;100507.88;4947941;28;98967;-76
2024/01/24 11:03:27;;;;;;;50.33;5.72;;;;;;;12.85;76.13;100503.75;4942211;28;96830;-76
2024/01/24 11:05:56;;;;;;;39.13;4.03;;;;;;;12.88;76.36;100513.31;4944744;28;97995;-76
2024/01/24 11:08:29;;;;;;;77.18;7.20;;;;;;;12.68;76.84;100508.97;4945641;28;99187;-77
2024/01/24 11:11:00;;;;;;;39.67;4.85;;;;;;;12.79;76.84;100517.28;4942156;28;99007;-77
2024/01/24 11:13:26;;;;;;;28.30;3.92;;;;;;;12.69;77.06;100524.81;4942216;28;99561;-78
2024/01/24 11:15:54;;;;;;;60.90;5.13;;;;;;;12.43;77.98;100535.78;4947510;28;97545;-75
2024/01/24 11:18:26;;;;;;;38.47;4.47;;;;;;;12.70;76.52;100534.50;4945794;28;99129;-76